sensor_id;sensor_type;location;lat;lon;timestamp;temperature;humidity
4727;DHT22;2377;51.734;8.950;2023-07-13T00:02:31;17.90;15.80
4727;DHT22;2377;51.734;8.950;2023-07-13T00:05:01;17.80;17.30
4727;DHT22;2377;51.734;8.950;2023-07-13T00:07:32;17.80;15.90
4727;DHT22;2377;51.734;8.950;2023-07-13T00:10:08;17.70;17.50
4727;DHT22;2377;51.734;8.950;2023-07-13T00:12:43;17.60;23.50
4727;DHT22;2377;51.734;8.950;2023-07-13T00:15:17;17.60;17.90
4727;DHT22;2377;51.734;8.950;2023-07-13T00:17:52;17.60;22.60
4727;DHT22;2377;51.734;8.950;2023-07-13T00:20:28;17.60;21.90
4727;DHT22;2377;51.734;8.950;2023-07-13T00:23:09;17.60;24.10
4727;DHT22;2377;51.734;8.950;2023-07-13T00:25:41;17.50;21.20
4727;DHT22;2377;51.734;8.950;2023-07-13T00:28:15;17.50;27.30
4727;DHT22;2377;51.734;8.950;2023-07-13T00:30:50;17.40;30.50
4727;DHT22;2377;51.734;8.950;2023-07-13T00:33:20;17.30;27.30
4727;DHT22;2377;51.734;8.950;2023-07-13T00:35:55;17.30;28.50
4727;DHT22;2377;51.734;8.950;2023-07-13T00:38:28;17.30;28.00
4727;DHT22;2377;51.734;8.950;2023-07-13T00:40:57;17.30;26.10
4727;DHT22;2377;51.734;8.950;2023-07-13T00:43:31;17.30;25.90
4727;DHT22;2377;51.734;8.950;2023-07-13T00:46:18;17.30;26.40
4727;DHT22;2377;51.734;8.950;2023-07-13T00:48:54;17.30;29.30
4727;DHT22;2377;51.734;8.950;2023-07-13T00:51:49;17.20;26.50
4727;DHT22;2377;51.734;8.950;2023-07-13T00:54:24;17.10;26.00
4727;DHT22;2377;51.734;8.950;2023-07-13T00:56:59;17.10;25.40
4727;DHT22;2377;51.734;8.950;2023-07-13T00:59:35;17.00;26.10
4727;DHT22;2377;51.734;8.950;2023-07-13T01:02:14;17.00;30.60
4727;DHT22;2377;51.734;8.950;2023-07-13T01:04:46;16.90;28.90
4727;DHT22;2377;51.734;8.950;2023-07-13T01:07:14;16.80;28.80
4727;DHT22;2377;51.734;8.950;2023-07-13T01:09:48;16.80;27.80
4727;DHT22;2377;51.734;8.950;2023-07-13T01:12:20;16.80;30.50
4727;DHT22;2377;51.734;8.950;2023-07-13T01:14:58;16.70;31.90
4727;DHT22;2377;51.734;8.950;2023-07-13T01:17:28;16.60;35.40
4727;DHT22;2377;51.734;8.950;2023-07-13T01:20:09;16.60;36.50
4727;DHT22;2377;51.734;8.950;2023-07-13T01:22:42;16.50;35.90
4727;DHT22;2377;51.734;8.950;2023-07-13T01:25:14;16.50;35.90
4727;DHT22;2377;51.734;8.950;2023-07-13T01:27:54;16.50;38.30
4727;DHT22;2377;51.734;8.950;2023-07-13T01:30:25;16.40;42.80
4727;DHT22;2377;51.734;8.950;2023-07-13T01:33:03;16.40;43.50
4727;DHT22;2377;51.734;8.950;2023-07-13T01:35:31;16.30;46.10
4727;DHT22;2377;51.734;8.950;2023-07-13T01:38:17;16.30;43.30
4727;DHT22;2377;51.734;8.950;2023-07-13T01:40:47;16.30;43.60
4727;DHT22;2377;51.734;8.950;2023-07-13T01:43:21;16.30;43.00
4727;DHT22;2377;51.734;8.950;2023-07-13T01:45:50;16.20;43.40
4727;DHT22;2377;51.734;8.950;2023-07-13T01:48:23;16.20;51.40
4727;DHT22;2377;51.734;8.950;2023-07-13T01:50:57;16.10;53.70
4727;DHT22;2377;51.734;8.950;2023-07-13T01:53:31;16.10;63.80
4727;DHT22;2377;51.734;8.950;2023-07-13T01:55:59;16.00;60.50
4727;DHT22;2377;51.734;8.950;2023-07-13T01:58:28;16.10;59.60
4727;DHT22;2377;51.734;8.950;2023-07-13T02:01:01;16.00;59.10
4727;DHT22;2377;51.734;8.950;2023-07-13T02:03:31;16.00;57.90
4727;DHT22;2377;51.734;8.950;2023-07-13T02:06:00;16.00;60.80
4727;DHT22;2377;51.734;8.950;2023-07-13T02:08:42;16.00;63.60
4727;DHT22;2377;51.734;8.950;2023-07-13T02:11:15;16.00;71.50
4727;DHT22;2377;51.734;8.950;2023-07-13T02:13:54;15.90;81.20
4727;DHT22;2377;51.734;8.950;2023-07-13T02:16:27;15.80;84.40
4727;DHT22;2377;51.734;8.950;2023-07-13T02:19:02;15.80;83.20
4727;DHT22;2377;51.734;8.950;2023-07-13T02:21:34;15.80;81.30
4727;DHT22;2377;51.734;8.950;2023-07-13T02:24:08;15.80;79.00
4727;DHT22;2377;51.734;8.950;2023-07-13T02:26:45;15.80;92.10
4727;DHT22;2377;51.734;8.950;2023-07-13T02:29:14;15.80;91.10
4727;DHT22;2377;51.734;8.950;2023-07-13T02:31:43;15.80;92.90
4727;DHT22;2377;51.734;8.950;2023-07-13T02:34:18;15.80;88.50
4727;DHT22;2377;51.734;8.950;2023-07-13T02:36:52;15.80;92.80
4727;DHT22;2377;51.734;8.950;2023-07-13T02:39:29;15.70;95.20
4727;DHT22;2377;51.734;8.950;2023-07-13T02:42:14;15.70;94.30
4727;DHT22;2377;51.734;8.950;2023-07-13T02:44:46;15.70;94.70
4727;DHT22;2377;51.734;8.950;2023-07-13T02:47:23;15.60;96.40
4727;DHT22;2377;51.734;8.950;2023-07-13T02:49:56;15.60;97.70
4727;DHT22;2377;51.734;8.950;2023-07-13T02:52:25;15.60;99.90
4727;DHT22;2377;51.734;8.950;2023-07-13T02:55:03;15.60;99.10
4727;DHT22;2377;51.734;8.950;2023-07-13T02:57:40;15.60;99.90
4727;DHT22;2377;51.734;8.950;2023-07-13T03:00:26;15.60;99.90
4727;DHT22;2377;51.734;8.950;2023-07-13T03:02:57;15.60;99.90
4727;DHT22;2377;51.734;8.950;2023-07-13T03:05:27;15.60;99.90
4727;DHT22;2377;51.734;8.950;2023-07-13T03:07:59;15.60;99.90
4727;DHT22;2377;51.734;8.950;2023-07-13T03:10:32;15.60;98.30
4727;DHT22;2377;51.734;8.950;2023-07-13T03:13:03;15.60;99.90
4727;DHT22;2377;51.734;8.950;2023-07-13T03:15:48;15.60;99.90
4727;DHT22;2377;51.734;8.950;2023-07-13T03:18:23;15.50;99.90
4727;DHT22;2377;51.734;8.950;2023-07-13T03:21:12;15.50;99.90
4727;DHT22;2377;51.734;8.950;2023-07-13T03:23:45;15.50;99.90
4727;DHT22;2377;51.734;8.950;2023-07-13T03:26:30;15.50;99.90
4727;DHT22;2377;51.734;8.950;2023-07-13T03:29:08;15.50;97.20
4727;DHT22;2377;51.734;8.950;2023-07-13T03:31:44;15.40;98.90
4727;DHT22;2377;51.734;8.950;2023-07-13T03:34:14;15.30;99.90
4727;DHT22;2377;51.734;8.950;2023-07-13T03:36:47;15.30;99.90
4727;DHT22;2377;51.734;8.950;2023-07-13T03:39:21;15.30;99.90
4727;DHT22;2377;51.734;8.950;2023-07-13T03:42:08;15.30;99.90
4727;DHT22;2377;51.734;8.950;2023-07-13T03:44:42;15.30;99.90
4727;DHT22;2377;51.734;8.950;2023-07-13T03:47:20;15.30;99.90
4727;DHT22;2377;51.734;8.950;2023-07-13T03:50:04;15.20;99.90
4727;DHT22;2377;51.734;8.950;2023-07-13T03:52:39;15.20;99.90
4727;DHT22;2377;51.734;8.950;2023-07-13T03:55:09;15.30;99.90
4727;DHT22;2377;51.734;8.950;2023-07-13T03:57:43;15.40;99.90
4727;DHT22;2377;51.734;8.950;2023-07-13T04:00:16;15.50;99.90
4727;DHT22;2377;51.734;8.950;2023-07-13T04:02:50;15.50;97.90
4727;DHT22;2377;51.734;8.950;2023-07-13T04:05:18;15.50;84.20
4727;DHT22;2377;51.734;8.950;2023-07-13T04:07:47;15.50;98.80
4727;DHT22;2377;51.734;8.950;2023-07-13T04:10:23;15.40;89.80
4727;DHT22;2377;51.734;8.950;2023-07-13T04:12:53;15.40;83.50
4727;DHT22;2377;51.734;8.950;2023-07-13T04:15:21;15.40;86.80
4727;DHT22;2377;51.734;8.950;2023-07-13T04:17:49;15.40;88.00
4727;DHT22;2377;51.734;8.950;2023-07-13T04:20:18;15.40;84.90
4727;DHT22;2377;51.734;8.950;2023-07-13T04:22:50;15.40;88.70
4727;DHT22;2377;51.734;8.950;2023-07-13T04:25:27;15.30;82.60
4727;DHT22;2377;51.734;8.950;2023-07-13T04:27:57;15.40;81.00
4727;DHT22;2377;51.734;8.950;2023-07-13T04:30:29;15.50;85.00
4727;DHT22;2377;51.734;8.950;2023-07-13T04:32:59;15.40;79.20
4727;DHT22;2377;51.734;8.950;2023-07-13T04:35:31;15.50;83.50
4727;DHT22;2377;51.734;8.950;2023-07-13T04:38:03;15.50;83.10
4727;DHT22;2377;51.734;8.950;2023-07-13T04:40:40;15.50;83.50
4727;DHT22;2377;51.734;8.950;2023-07-13T04:43:13;15.50;79.90
4727;DHT22;2377;51.734;8.950;2023-07-13T04:45:45;15.50;78.40
4727;DHT22;2377;51.734;8.950;2023-07-13T04:48:23;15.50;73.30
4727;DHT22;2377;51.734;8.950;2023-07-13T04:50:58;15.50;71.60
4727;DHT22;2377;51.734;8.950;2023-07-13T04:53:31;15.60;71.00
4727;DHT22;2377;51.734;8.950;2023-07-13T04:56:13;15.60;67.70
4727;DHT22;2377;51.734;8.950;2023-07-13T04:58:52;15.60;68.80
4727;DHT22;2377;51.734;8.950;2023-07-13T05:01:38;15.70;66.70
4727;DHT22;2377;51.734;8.950;2023-07-13T05:04:15;15.70;66.00
4727;DHT22;2377;51.734;8.950;2023-07-13T05:06:46;15.70;62.20
4727;DHT22;2377;51.734;8.950;2023-07-13T05:09:21;15.80;54.50
4727;DHT22;2377;51.734;8.950;2023-07-13T05:11:57;15.80;58.90
4727;DHT22;2377;51.734;8.950;2023-07-13T05:14:46;15.90;60.00
4727;DHT22;2377;51.734;8.950;2023-07-13T05:17:16;15.90;52.00
4727;DHT22;2377;51.734;8.950;2023-07-13T05:20:03;16.00;53.10
4727;DHT22;2377;51.734;8.950;2023-07-13T05:22:33;16.00;50.40
4727;DHT22;2377;51.734;8.950;2023-07-13T05:25:03;16.10;52.00
4727;DHT22;2377;51.734;8.950;2023-07-13T05:27:36;16.10;49.80
4727;DHT22;2377;51.734;8.950;2023-07-13T05:30:10;16.10;49.70
4727;DHT22;2377;51.734;8.950;2023-07-13T05:32:47;16.10;47.60
4727;DHT22;2377;51.734;8.950;2023-07-13T05:35:16;16.20;44.30
4727;DHT22;2377;51.734;8.950;2023-07-13T05:37:47;16.20;44.20
4727;DHT22;2377;51.734;8.950;2023-07-13T05:43:29;16.30;40.90
4727;DHT22;2377;51.734;8.950;2023-07-13T05:46:01;16.30;44.10
4727;DHT22;2377;51.734;8.950;2023-07-13T05:48:37;16.30;43.40
4727;DHT22;2377;51.734;8.950;2023-07-13T05:51:28;16.40;56.10
4727;DHT22;2377;51.734;8.950;2023-07-13T05:54:00;16.50;32.90
4727;DHT22;2377;51.734;8.950;2023-07-13T05:57:04;16.50;30.00
4727;DHT22;2377;51.734;8.950;2023-07-13T05:59:47;16.50;28.70
4727;DHT22;2377;51.734;8.950;2023-07-13T06:02:22;16.50;29.50
4727;DHT22;2377;51.734;8.950;2023-07-13T06:05:04;16.60;29.40
4727;DHT22;2377;51.734;8.950;2023-07-13T06:07:45;16.60;32.40
4727;DHT22;2377;51.734;8.950;2023-07-13T06:10:20;16.70;34.30
4727;DHT22;2377;51.734;8.950;2023-07-13T06:12:55;16.80;31.20
4727;DHT22;2377;51.734;8.950;2023-07-13T06:15:27;16.90;24.90
4727;DHT22;2377;51.734;8.950;2023-07-13T06:18:06;17.00;23.40
4727;DHT22;2377;51.734;8.950;2023-07-13T06:20:40;17.10;24.70
4727;DHT22;2377;51.734;8.950;2023-07-13T06:23:19;17.10;22.00
4727;DHT22;2377;51.734;8.950;2023-07-13T06:25:56;17.10;20.70
4727;DHT22;2377;51.734;8.950;2023-07-13T06:28:27;17.30;22.00
4727;DHT22;2377;51.734;8.950;2023-07-13T06:30:57;17.30;21.60
4727;DHT22;2377;51.734;8.950;2023-07-13T06:33:45;17.30;21.10
4727;DHT22;2377;51.734;8.950;2023-07-13T06:36:14;17.30;18.50
4727;DHT22;2377;51.734;8.950;2023-07-13T06:38:47;17.40;20.40
4727;DHT22;2377;51.734;8.950;2023-07-13T06:41:22;17.40;23.30
4727;DHT22;2377;51.734;8.950;2023-07-13T06:43:56;17.30;26.90
4727;DHT22;2377;51.734;8.950;2023-07-13T06:46:30;17.30;21.60
4727;DHT22;2377;51.734;8.950;2023-07-13T06:49:01;17.30;19.40
4727;DHT22;2377;51.734;8.950;2023-07-13T06:51:30;17.30;23.10
4727;DHT22;2377;51.734;8.950;2023-07-13T06:54:01;17.40;20.20
4727;DHT22;2377;51.734;8.950;2023-07-13T06:56:30;17.60;18.00
4727;DHT22;2377;51.734;8.950;2023-07-13T06:59:11;17.70;15.30
4727;DHT22;2377;51.734;8.950;2023-07-13T07:01:43;17.80;13.00
4727;DHT22;2377;51.734;8.950;2023-07-13T07:04:35;17.90;18.20
4727;DHT22;2377;51.734;8.950;2023-07-13T07:07:08;17.90;11.40
4727;DHT22;2377;51.734;8.950;2023-07-13T07:09:39;18.10;8.20
4727;DHT22;2377;51.734;8.950;2023-07-13T07:12:12;18.20;5.80
4727;DHT22;2377;51.734;8.950;2023-07-13T07:14:41;18.10;9.20
4727;DHT22;2377;51.734;8.950;2023-07-13T07:17:15;18.20;3.90
4727;DHT22;2377;51.734;8.950;2023-07-13T07:19:56;18.20;7.30
4727;DHT22;2377;51.734;8.950;2023-07-13T07:22:36;18.20;5.80
4727;DHT22;2377;51.734;8.950;2023-07-13T07:25:12;18.30;7.20
4727;DHT22;2377;51.734;8.950;2023-07-13T07:27:51;18.10;12.10
4727;DHT22;2377;51.734;8.950;2023-07-13T07:30:48;18.00;10.50
4727;DHT22;2377;51.734;8.950;2023-07-13T07:33:27;18.10;10.80
4727;DHT22;2377;51.734;8.950;2023-07-13T07:36:10;18.40;4.10
4727;DHT22;2377;51.734;8.950;2023-07-13T07:38:39;18.50;1.50
4727;DHT22;2377;51.734;8.950;2023-07-13T07:41:13;18.70;8.50
4727;DHT22;2377;51.734;8.950;2023-07-13T07:43:48;18.80;1.00
4727;DHT22;2377;51.734;8.950;2023-07-13T07:46:30;18.80;1.00
4727;DHT22;2377;51.734;8.950;2023-07-13T07:49:01;18.80;1.00
4727;DHT22;2377;51.734;8.950;2023-07-13T07:51:55;19.00;1.00
4727;DHT22;2377;51.734;8.950;2023-07-13T07:54:39;19.00;1.00
4727;DHT22;2377;51.734;8.950;2023-07-13T07:57:12;19.00;1.00
4727;DHT22;2377;51.734;8.950;2023-07-13T07:59:56;19.00;1.00
4727;DHT22;2377;51.734;8.950;2023-07-13T08:02:39;19.10;1.00
4727;DHT22;2377;51.734;8.950;2023-07-13T08:05:12;19.10;1.00
4727;DHT22;2377;51.734;8.950;2023-07-13T08:07:46;19.10;1.00
4727;DHT22;2377;51.734;8.950;2023-07-13T08:10:22;19.10;1.00
4727;DHT22;2377;51.734;8.950;2023-07-13T08:13:01;19.00;1.00
4727;DHT22;2377;51.734;8.950;2023-07-13T08:15:37;19.10;1.00
4727;DHT22;2377;51.734;8.950;2023-07-13T08:18:14;19.30;1.00
4727;DHT22;2377;51.734;8.950;2023-07-13T08:20:46;19.60;1.00
4727;DHT22;2377;51.734;8.950;2023-07-13T08:23:29;20.00;1.00
4727;DHT22;2377;51.734;8.950;2023-07-13T08:26:02;20.10;1.00
4727;DHT22;2377;51.734;8.950;2023-07-13T08:28:57;20.00;1.00
4727;DHT22;2377;51.734;8.950;2023-07-13T08:31:31;19.80;1.00
4727;DHT22;2377;51.734;8.950;2023-07-13T08:34:16;19.50;1.00
4727;DHT22;2377;51.734;8.950;2023-07-13T08:36:59;19.30;1.00
4727;DHT22;2377;51.734;8.950;2023-07-13T08:39:52;19.30;1.00
4727;DHT22;2377;51.734;8.950;2023-07-13T08:42:38;19.50;1.00
4727;DHT22;2377;51.734;8.950;2023-07-13T08:45:42;19.30;1.00
4727;DHT22;2377;51.734;8.950;2023-07-13T08:48:20;19.50;1.00
4727;DHT22;2377;51.734;8.950;2023-07-13T08:51:11;19.70;1.00
4727;DHT22;2377;51.734;8.950;2023-07-13T08:54:03;19.90;1.00
4727;DHT22;2377;51.734;8.950;2023-07-13T08:56:59;20.00;1.00
4727;DHT22;2377;51.734;8.950;2023-07-13T08:59:51;20.00;1.00
4727;DHT22;2377;51.734;8.950;2023-07-13T09:02:45;19.80;1.00
4727;DHT22;2377;51.734;8.950;2023-07-13T09:05:36;19.70;1.00
4727;DHT22;2377;51.734;8.950;2023-07-13T09:08:36;19.90;1.00
4727;DHT22;2377;51.734;8.950;2023-07-13T09:11:41;20.00;1.00
4727;DHT22;2377;51.734;8.950;2023-07-13T09:14:48;20.10;1.00
4727;DHT22;2377;51.734;8.950;2023-07-13T09:17:39;20.10;1.00
4727;DHT22;2377;51.734;8.950;2023-07-13T09:20:20;20.20;1.00
4727;DHT22;2377;51.734;8.950;2023-07-13T09:22:54;20.20;1.00
4727;DHT22;2377;51.734;8.950;2023-07-13T09:25:32;20.40;1.00
4727;DHT22;2377;51.734;8.950;2023-07-13T09:28:12;20.40;1.00
4727;DHT22;2377;51.734;8.950;2023-07-13T09:30:52;20.50;1.00
4727;DHT22;2377;51.734;8.950;2023-07-13T09:33:34;20.20;1.00
4727;DHT22;2377;51.734;8.950;2023-07-13T09:36:19;20.10;1.00
4727;DHT22;2377;51.734;8.950;2023-07-13T09:38:59;20.10;1.00
4727;DHT22;2377;51.734;8.950;2023-07-13T09:41:39;20.20;1.00
4727;DHT22;2377;51.734;8.950;2023-07-13T09:44:16;20.50;1.00
4727;DHT22;2377;51.734;8.950;2023-07-13T09:47:01;20.50;1.00
4727;DHT22;2377;51.734;8.950;2023-07-13T09:49:43;20.50;1.00
4727;DHT22;2377;51.734;8.950;2023-07-13T09:52:15;20.90;1.00
4727;DHT22;2377;51.734;8.950;2023-07-13T09:54:58;21.00;1.00
4727;DHT22;2377;51.734;8.950;2023-07-13T09:57:28;21.30;1.00
4727;DHT22;2377;51.734;8.950;2023-07-13T10:00:22;21.50;1.00
4727;DHT22;2377;51.734;8.950;2023-07-13T10:03:03;21.60;1.00
4727;DHT22;2377;51.734;8.950;2023-07-13T10:05:40;21.90;1.00
4727;DHT22;2377;51.734;8.950;2023-07-13T10:08:24;22.10;1.00
4727;DHT22;2377;51.734;8.950;2023-07-13T10:10:58;22.10;1.00
4727;DHT22;2377;51.734;8.950;2023-07-13T10:13:43;22.00;1.00
4727;DHT22;2377;51.734;8.950;2023-07-13T10:16:33;22.20;1.00
4727;DHT22;2377;51.734;8.950;2023-07-13T10:19:06;22.40;1.00
4727;DHT22;2377;51.734;8.950;2023-07-13T10:21:53;22.30;1.00
4727;DHT22;2377;51.734;8.950;2023-07-13T10:24:26;22.40;1.00
4727;DHT22;2377;51.734;8.950;2023-07-13T10:27:03;22.30;1.00
4727;DHT22;2377;51.734;8.950;2023-07-13T10:29:48;22.00;1.00
4727;DHT22;2377;51.734;8.950;2023-07-13T10:32:31;21.80;1.00
4727;DHT22;2377;51.734;8.950;2023-07-13T10:35:04;21.60;1.00
4727;DHT22;2377;51.734;8.950;2023-07-13T10:37:47;21.60;1.00
4727;DHT22;2377;51.734;8.950;2023-07-13T10:40:29;21.60;1.00
4727;DHT22;2377;51.734;8.950;2023-07-13T10:43:16;21.60;1.00
4727;DHT22;2377;51.734;8.950;2023-07-13T10:46:06;21.80;1.00
4727;DHT22;2377;51.734;8.950;2023-07-13T10:48:39;21.80;1.00
4727;DHT22;2377;51.734;8.950;2023-07-13T10:51:26;21.60;1.00
4727;DHT22;2377;51.734;8.950;2023-07-13T10:54:21;21.80;1.00
4727;DHT22;2377;51.734;8.950;2023-07-13T10:57:17;22.10;1.00
4727;DHT22;2377;51.734;8.950;2023-07-13T11:00:14;22.50;1.00
4727;DHT22;2377;51.734;8.950;2023-07-13T11:02:57;22.50;1.00
4727;DHT22;2377;51.734;8.950;2023-07-13T11:05:35;22.30;1.00
4727;DHT22;2377;51.734;8.950;2023-07-13T11:08:34;22.50;1.00
4727;DHT22;2377;51.734;8.950;2023-07-13T11:11:37;22.60;1.00
4727;DHT22;2377;51.734;8.950;2023-07-13T11:14:27;22.60;1.00
4727;DHT22;2377;51.734;8.950;2023-07-13T11:20:37;22.30;1.00
4727;DHT22;2377;51.734;8.950;2023-07-13T11:23:20;22.50;1.00
4727;DHT22;2377;51.734;8.950;2023-07-13T11:26:01;22.60;1.00
4727;DHT22;2377;51.734;8.950;2023-07-13T11:28:32;22.60;1.00
4727;DHT22;2377;51.734;8.950;2023-07-13T11:31:19;22.90;1.00
4727;DHT22;2377;51.734;8.950;2023-07-13T11:34:01;23.00;1.00
4727;DHT22;2377;51.734;8.950;2023-07-13T11:36:39;23.00;1.00
4727;DHT22;2377;51.734;8.950;2023-07-13T11:39:32;22.80;1.00
4727;DHT22;2377;51.734;8.950;2023-07-13T11:42:12;22.50;1.00
4727;DHT22;2377;51.734;8.950;2023-07-13T11:44:45;22.30;1.00
4727;DHT22;2377;51.734;8.950;2023-07-13T11:47:19;22.10;1.00
4727;DHT22;2377;51.734;8.950;2023-07-13T11:49:50;21.90;1.00
4727;DHT22;2377;51.734;8.950;2023-07-13T11:52:31;21.80;1.00
4727;DHT22;2377;51.734;8.950;2023-07-13T11:55:14;21.90;1.00
4727;DHT22;2377;51.734;8.950;2023-07-13T11:57:51;22.00;1.00
4727;DHT22;2377;51.734;8.950;2023-07-13T12:00:28;22.20;1.00
4727;DHT22;2377;51.734;8.950;2023-07-13T12:03:00;22.40;1.00
4727;DHT22;2377;51.734;8.950;2023-07-13T12:05:30;22.60;1.00
4727;DHT22;2377;51.734;8.950;2023-07-13T12:07:58;22.80;1.00
4727;DHT22;2377;51.734;8.950;2023-07-13T12:10:27;22.90;1.00
4727;DHT22;2377;51.734;8.950;2023-07-13T12:12:58;23.00;1.00
4727;DHT22;2377;51.734;8.950;2023-07-13T12:15:34;23.00;1.00
4727;DHT22;2377;51.734;8.950;2023-07-13T12:18:12;22.80;1.00
4727;DHT22;2377;51.734;8.950;2023-07-13T12:20:41;22.70;1.00
4727;DHT22;2377;51.734;8.950;2023-07-13T12:23:22;22.60;1.00
4727;DHT22;2377;51.734;8.950;2023-07-13T12:25:51;22.50;1.00
4727;DHT22;2377;51.734;8.950;2023-07-13T12:28:31;22.50;1.00
4727;DHT22;2377;51.734;8.950;2023-07-13T12:31:02;22.80;1.00
4727;DHT22;2377;51.734;8.950;2023-07-13T12:33:33;23.00;1.00
4727;DHT22;2377;51.734;8.950;2023-07-13T12:36:05;23.00;1.00
4727;DHT22;2377;51.734;8.950;2023-07-13T12:38:33;23.00;1.00
4727;DHT22;2377;51.734;8.950;2023-07-13T12:41:01;22.90;1.00
4727;DHT22;2377;51.734;8.950;2023-07-13T12:43:35;23.00;1.00
4727;DHT22;2377;51.734;8.950;2023-07-13T12:46:14;23.00;1.00
4727;DHT22;2377;51.734;8.950;2023-07-13T12:48:44;22.90;1.00
4727;DHT22;2377;51.734;8.950;2023-07-13T12:51:15;22.90;1.00
4727;DHT22;2377;51.734;8.950;2023-07-13T12:53:48;22.80;1.00
4727;DHT22;2377;51.734;8.950;2023-07-13T12:56:21;22.80;1.00
4727;DHT22;2377;51.734;8.950;2023-07-13T12:58:56;22.60;1.00
4727;DHT22;2377;51.734;8.950;2023-07-13T13:01:27;22.30;1.00
4727;DHT22;2377;51.734;8.950;2023-07-13T13:03:55;22.40;1.00
4727;DHT22;2377;51.734;8.950;2023-07-13T13:06:25;22.40;1.00
4727;DHT22;2377;51.734;8.950;2023-07-13T13:08:56;22.40;1.00
4727;DHT22;2377;51.734;8.950;2023-07-13T13:11:25;22.50;1.00
4727;DHT22;2377;51.734;8.950;2023-07-13T13:13:55;22.50;1.00
4727;DHT22;2377;51.734;8.950;2023-07-13T13:16:26;22.50;1.00
4727;DHT22;2377;51.734;8.950;2023-07-13T13:18:59;22.50;1.00
4727;DHT22;2377;51.734;8.950;2023-07-13T13:21:37;22.60;1.00
4727;DHT22;2377;51.734;8.950;2023-07-13T13:24:10;22.70;1.00
4727;DHT22;2377;51.734;8.950;2023-07-13T13:26:39;22.60;1.00
4727;DHT22;2377;51.734;8.950;2023-07-13T13:29:15;22.80;1.00
4727;DHT22;2377;51.734;8.950;2023-07-13T13:31:44;23.00;1.00
4727;DHT22;2377;51.734;8.950;2023-07-13T13:34:14;23.10;1.00
4727;DHT22;2377;51.734;8.950;2023-07-13T13:36:43;23.10;1.00
4727;DHT22;2377;51.734;8.950;2023-07-13T13:39:19;23.30;1.00
4727;DHT22;2377;51.734;8.950;2023-07-13T13:41:49;23.50;1.00
4727;DHT22;2377;51.734;8.950;2023-07-13T13:44:19;23.60;1.00
4727;DHT22;2377;51.734;8.950;2023-07-13T13:46:49;23.70;1.00
4727;DHT22;2377;51.734;8.950;2023-07-13T13:49:21;23.60;1.00
4727;DHT22;2377;51.734;8.950;2023-07-13T13:51:49;23.60;1.00
4727;DHT22;2377;51.734;8.950;2023-07-13T13:54:18;23.90;1.00
4727;DHT22;2377;51.734;8.950;2023-07-13T13:56:48;24.00;1.00
4727;DHT22;2377;51.734;8.950;2023-07-13T13:59:18;24.00;1.00
4727;DHT22;2377;51.734;8.950;2023-07-13T14:01:47;23.80;1.00
4727;DHT22;2377;51.734;8.950;2023-07-13T14:04:18;24.00;1.00
4727;DHT22;2377;51.734;8.950;2023-07-13T14:06:47;23.90;1.00
4727;DHT22;2377;51.734;8.950;2023-07-13T14:09:17;23.90;1.00
4727;DHT22;2377;51.734;8.950;2023-07-13T14:11:46;23.90;1.00
4727;DHT22;2377;51.734;8.950;2023-07-13T14:14:21;24.10;1.00
4727;DHT22;2377;51.734;8.950;2023-07-13T14:16:53;24.20;1.00
4727;DHT22;2377;51.734;8.950;2023-07-13T14:19:23;24.10;1.00
4727;DHT22;2377;51.734;8.950;2023-07-13T14:21:50;23.80;1.00
4727;DHT22;2377;51.734;8.950;2023-07-13T14:24:19;23.60;1.00
4727;DHT22;2377;51.734;8.950;2023-07-13T14:26:47;23.60;1.00
4727;DHT22;2377;51.734;8.950;2023-07-13T14:29:15;23.60;1.00
4727;DHT22;2377;51.734;8.950;2023-07-13T14:31:45;23.50;1.00
4727;DHT22;2377;51.734;8.950;2023-07-13T14:34:13;23.60;1.00
4727;DHT22;2377;51.734;8.950;2023-07-13T14:36:42;23.80;1.00
4727;DHT22;2377;51.734;8.950;2023-07-13T14:39:13;23.80;1.00
4727;DHT22;2377;51.734;8.950;2023-07-13T14:41:42;23.60;1.00
4727;DHT22;2377;51.734;8.950;2023-07-13T14:44:12;23.40;1.00
4727;DHT22;2377;51.734;8.950;2023-07-13T14:46:41;23.40;1.00
4727;DHT22;2377;51.734;8.950;2023-07-13T14:49:16;23.50;1.00
4727;DHT22;2377;51.734;8.950;2023-07-13T14:51:50;23.80;1.00
4727;DHT22;2377;51.734;8.950;2023-07-13T14:54:18;23.80;1.00
4727;DHT22;2377;51.734;8.950;2023-07-13T14:56:45;24.00;1.00
4727;DHT22;2377;51.734;8.950;2023-07-13T14:59:13;24.00;1.00
4727;DHT22;2377;51.734;8.950;2023-07-13T15:01:40;23.80;1.00
4727;DHT22;2377;51.734;8.950;2023-07-13T15:04:08;23.60;1.00
4727;DHT22;2377;51.734;8.950;2023-07-13T15:06:55;23.50;1.00
4727;DHT22;2377;51.734;8.950;2023-07-13T15:09:24;23.30;1.00
4727;DHT22;2377;51.734;8.950;2023-07-13T15:11:54;23.30;1.00
4727;DHT22;2377;51.734;8.950;2023-07-13T15:14:21;23.10;1.00
4727;DHT22;2377;51.734;8.950;2023-07-13T15:16:51;23.00;1.00
4727;DHT22;2377;51.734;8.950;2023-07-13T15:19:23;22.90;1.00
4727;DHT22;2377;51.734;8.950;2023-07-13T15:21:52;22.80;1.00
4727;DHT22;2377;51.734;8.950;2023-07-13T15:24:23;22.60;1.00
4727;DHT22;2377;51.734;8.950;2023-07-13T15:26:53;22.30;1.00
4727;DHT22;2377;51.734;8.950;2023-07-13T15:29:22;22.10;1.00
4727;DHT22;2377;51.734;8.950;2023-07-13T15:31:49;21.80;1.00
4727;DHT22;2377;51.734;8.950;2023-07-13T15:34:20;21.50;1.00
4727;DHT22;2377;51.734;8.950;2023-07-13T15:36:52;21.10;1.00
4727;DHT22;2377;51.734;8.950;2023-07-13T15:39:19;20.90;1.00
4727;DHT22;2377;51.734;8.950;2023-07-13T15:41:48;20.60;1.00
4727;DHT22;2377;51.734;8.950;2023-07-13T15:44:25;20.50;1.00
4727;DHT22;2377;51.734;8.950;2023-07-13T15:46:54;20.30;1.00
4727;DHT22;2377;51.734;8.950;2023-07-13T15:49:21;20.00;1.60
4727;DHT22;2377;51.734;8.950;2023-07-13T15:51:50;19.60;13.10
4727;DHT22;2377;51.734;8.950;2023-07-13T15:54:18;19.30;19.10
4727;DHT22;2377;51.734;8.950;2023-07-13T15:56:52;18.90;27.20
4727;DHT22;2377;51.734;8.950;2023-07-13T15:59:21;18.50;40.00
4727;DHT22;2377;51.734;8.950;2023-07-13T16:01:49;18.30;47.90
4727;DHT22;2377;51.734;8.950;2023-07-13T16:04:16;18.10;48.20
4727;DHT22;2377;51.734;8.950;2023-07-13T16:06:45;18.20;60.00
4727;DHT22;2377;51.734;8.950;2023-07-13T16:09:18;18.10;74.30
4727;DHT22;2377;51.734;8.950;2023-07-13T16:11:50;18.00;77.20
4727;DHT22;2377;51.734;8.950;2023-07-13T16:14:20;18.10;57.90
4727;DHT22;2377;51.734;8.950;2023-07-13T16:16:50;18.00;65.30
4727;DHT22;2377;51.734;8.950;2023-07-13T16:19:21;18.00;71.90
4727;DHT22;2377;51.734;8.950;2023-07-13T16:21:54;17.80;68.70
4727;DHT22;2377;51.734;8.950;2023-07-13T16:24:23;17.90;71.50
4727;DHT22;2377;51.734;8.950;2023-07-13T16:26:53;17.90;75.10
4727;DHT22;2377;51.734;8.950;2023-07-13T16:29:26;18.00;77.90
4727;DHT22;2377;51.734;8.950;2023-07-13T16:31:59;18.00;79.50
4727;DHT22;2377;51.734;8.950;2023-07-13T16:34:28;18.10;75.60
4727;DHT22;2377;51.734;8.950;2023-07-13T16:36:56;18.10;70.70
4727;DHT22;2377;51.734;8.950;2023-07-13T16:39:26;18.10;76.80
4727;DHT22;2377;51.734;8.950;2023-07-13T16:41:57;18.20;78.50
4727;DHT22;2377;51.734;8.950;2023-07-13T16:44:26;18.30;87.80
4727;DHT22;2377;51.734;8.950;2023-07-13T16:46:54;18.30;82.90
4727;DHT22;2377;51.734;8.950;2023-07-13T16:49:28;18.50;58.40
4727;DHT22;2377;51.734;8.950;2023-07-13T16:51:58;18.60;49.30
4727;DHT22;2377;51.734;8.950;2023-07-13T16:54:29;18.70;46.00
4727;DHT22;2377;51.734;8.950;2023-07-13T16:57:00;18.70;52.50
4727;DHT22;2377;51.734;8.950;2023-07-13T16:59:30;18.80;49.80
4727;DHT22;2377;51.734;8.950;2023-07-13T17:02:01;18.80;52.40
4727;DHT22;2377;51.734;8.950;2023-07-13T17:04:49;18.60;53.50
4727;DHT22;2377;51.734;8.950;2023-07-13T17:07:16;18.70;51.00
4727;DHT22;2377;51.734;8.950;2023-07-13T17:09:44;18.70;48.40
4727;DHT22;2377;51.734;8.950;2023-07-13T17:12:13;18.80;57.40